Time;durP1;ratioP1;P1;durP2;ratioP2;P2;SDS_P1;SDS_P2;PMS_P1;PMS_P2;Temp;Humidity;BMP_temperature;BMP_pressure;BME280_temperature;BME280_humidity;BME280_pressure;Samples;Min_cycle;Max_cycle;Signal;HPM_P1;HPM_P2
2023/03/28 00:01:00;;;;;;;8.30;1.23;;;;;;;2.55;79.28;101366.88;5047391;28;20597;-85
2023/03/28 00:03:28;;;;;;;9.80;1.60;;;;;;;2.53;79.59;101373.94;5044515;28;20225;-85
2023/03/28 00:05:56;;;;;;;8.93;1.40;;;;;;;2.55;79.65;101379.16;5049032;28;20209;-85
2023/03/28 00:08:24;;;;;;;8.53;1.60;;;;;;;2.53;79.22;101379.19;5054048;28;20208;-85
2023/03/28 00:10:50;;;;;;;9.30;2.57;;;;;;;2.54;79.10;101370.41;5047168;28;20221;-85
2023/03/28 00:13:18;;;;;;;8.47;2.40;;;;;;;2.56;79.34;101387.03;5053349;28;20241;-84
2023/03/28 00:15:45;;;;;;;8.93;1.73;;;;;;;2.55;80.17;101381.78;5047474;28;20209;-86
2023/03/28 00:18:11;;;;;;;5.13;1.10;;;;;;;2.55;79.16;101393.19;5051969;28;20211;-85
2023/03/28 00:20:39;;;;;;;4.83;1.40;;;;;;;2.57;79.74;101390.53;5054153;28;20296;-84
2023/03/28 00:23:06;;;;;;;9.30;1.67;;;;;;;2.57;79.25;101401.91;5048773;28;20232;-84
2023/03/28 00:25:38;;;;;;;8.40;1.80;;;;;;;2.57;79.00;101396.66;5048376;28;21147;-85
2023/03/28 00:28:05;;;;;;;6.47;1.10;;;;;;;2.58;79.83;101403.63;5049827;28;20244;-85
2023/03/28 00:30:32;;;;;;;4.77;1.20;;;;;;;2.60;79.51;101406.25;5048396;28;20224;-85
2023/03/28 00:32:58;;;;;;;7.70;1.67;;;;;;;2.59;79.27;101410.63;5045520;28;20234;-86
2023/03/28 00:35:25;;;;;;;6.80;0.90;;;;;;;2.60;79.21;101407.13;5043320;28;20235;-85
2023/03/28 00:37:56;;;;;;;6.60;1.27;;;;;;;2.59;78.98;101405.38;5050762;28;20212;-84
2023/03/28 00:40:24;;;;;;;6.13;1.27;;;;;;;2.57;79.18;101406.28;5052817;28;20198;-85
2023/03/28 00:42:52;;;;;;;4.83;1.10;;;;;;;2.57;78.61;101414.19;5049641;28;20225;-83
2023/03/28 00:45:20;;;;;;;5.80;1.63;;;;;;;2.55;79.22;101406.31;5050863;28;20263;-83
2023/03/28 00:47:53;;;;;;;4.50;1.80;;;;;;;2.53;79.09;101416.00;5048959;28;20300;-84
2023/03/28 00:50:23;;;;;;;2.77;1.30;;;;;;;2.51;78.69;101424.84;5046253;28;20701;-84
2023/03/28 00:52:54;;;;;;;6.10;1.47;;;;;;;2.51;79.36;101420.41;5044895;28;20228;-84
2023/03/28 00:55:26;;;;;;;11.03;1.70;;;;;;;2.50;78.60;101423.09;5049350;28;20286;-84
2023/03/28 00:57:54;;;;;;;8.67;1.93;;;;;;;2.48;79.43;101428.38;5049190;28;20205;-84
2023/03/28 01:00:21;;;;;;;5.40;0.87;;;;;;;2.44;79.32;101426.69;5051369;28;20221;-85
2023/03/28 01:02:51;;;;;;;3.13;1.03;;;;;;;2.42;80.22;101433.75;5053153;28;20225;-84
2023/03/28 01:05:22;;;;;;;8.27;2.10;;;;;;;2.37;80.58;101438.19;5048924;28;20876;-85
2023/03/28 01:07:53;;;;;;;5.97;1.00;;;;;;;2.33;80.65;101449.69;5050223;28;20210;-85
2023/03/28 01:10:21;;;;;;;7.73;1.20;;;;;;;2.28;80.96;101447.13;5047151;28;20704;-85
2023/03/28 01:12:47;;;;;;;5.30;1.23;;;;;;;2.27;80.64;101452.41;5046575;28;20229;-85
2023/03/28 01:15:16;;;;;;;5.57;1.33;;;;;;;2.23;81.53;101450.72;5051015;28;20201;-85
2023/03/28 01:17:45;;;;;;;8.17;1.70;;;;;;;2.20;81.98;101458.63;5050136;28;20654;-85
2023/03/28 01:20:28;;;;;;;8.40;1.33;;;;;;;2.17;82.41;101459.56;5054939;28;20634;-85
2023/03/28 01:23:30;;;;;;;12.40;1.37;;;;;;;2.18;81.59;101455.16;5048988;28;20244;-85
2023/03/28 01:26:32;;;;;;;6.43;1.30;;;;;;;2.17;82.14;101464.81;5050618;28;20196;-85
2023/03/28 01:29:32;;;;;;;7.70;1.50;;;;;;;2.17;81.86;101461.31;5047042;28;20205;-85
2023/03/28 01:32:35;;;;;;;4.63;1.33;;;;;;;2.16;82.31;101462.19;5047305;28;20764;-85
2023/03/28 01:35:48;;;;;;;7.63;1.10;;;;;;;2.12;82.16;101456.16;5048643;28;20204;-86
2023/03/28 01:38:21;;;;;;;8.87;1.77;;;;;;;2.11;82.37;101454.41;5050191;28;20565;-86
2023/03/28 01:40:55;;;;;;;6.77;1.37;;;;;;;2.09;82.53;101462.31;5048925;28;20202;-85
2023/03/28 01:43:34;;;;;;;6.20;1.47;;;;;;;2.07;82.94;101461.47;5052473;28;20221;-86
2023/03/28 01:46:07;;;;;;;5.63;1.53;;;;;;;2.07;83.10;101458.84;5045658;28;20198;-85
2023/03/28 01:48:43;;;;;;;4.20;1.10;;;;;;;2.07;83.43;101466.72;5055616;28;20205;-85
2023/03/28 01:51:15;;;;;;;5.00;1.20;;;;;;;2.07;83.93;101468.47;5046438;28;20225;-85
2023/03/28 01:53:48;;;;;;;7.53;1.80;;;;;;;2.05;83.94;101473.75;5051728;28;20620;-86
2023/03/28 01:56:22;;;;;;;8.97;1.63;;;;;;;2.04;84.28;101474.66;5050399;28;20213;-85
2023/03/28 01:58:55;;;;;;;3.37;1.50;;;;;;;2.00;83.85;101470.31;5046169;28;20193;-85
2023/03/28 02:01:25;;;;;;;8.80;2.20;;;;;;;1.99;84.52;101471.22;5047480;28;20586;-85
2023/03/28 02:03:55;;;;;;;5.63;1.77;;;;;;;1.98;84.28;101473.84;5051717;28;20698;-86
2023/03/28 02:06:24;;;;;;;5.83;1.63;;;;;;;1.97;84.63;101473.00;5049261;28;20206;-86
2023/03/28 02:08:54;;;;;;;7.50;1.43;;;;;;;1.95;84.98;101466.91;5051561;28;20545;-85
2023/03/28 02:11:21;;;;;;;11.27;2.03;;;;;;;1.93;85.58;101463.44;5049882;28;20690;-85
2023/03/28 02:13:50;;;;;;;11.80;1.83;;;;;;;1.92;85.34;101469.59;5045110;28;20225;-85
2023/03/28 02:16:21;;;;;;;12.37;2.43;;;;;;;1.92;85.04;101468.72;5052379;28;20209;-85
2023/03/28 02:18:52;;;;;;;8.87;1.87;;;;;;;1.92;84.91;101477.47;5054177;28;20569;-86
2023/03/28 02:21:23;;;;;;;5.00;1.43;;;;;;;1.91;85.24;101486.25;5053884;28;20198;-84
2023/03/28 02:23:52;;;;;;;9.80;1.40;;;;;;;1.92;85.12;101485.34;5055723;28;20202;-84
2023/03/28 02:26:20;;;;;;;7.33;1.57;;;;;;;1.93;85.52;101478.34;5053552;28;20221;-86
2023/03/28 02:28:51;;;;;;;7.97;1.83;;;;;;;1.92;85.04;101495.84;5052977;28;20201;-85
2023/03/28 02:31:18;;;;;;;6.57;2.00;;;;;;;1.90;85.47;101487.13;5050968;28;20570;-86
2023/03/28 02:33:46;;;;;;;2.93;1.20;;;;;;;1.91;85.24;101488.00;5053461;28;20218;-85
2023/03/28 02:36:24;;;;;;;6.33;1.57;;;;;;;1.89;85.69;101488.00;5053144;28;20259;-85
2023/03/28 02:39:01;;;;;;;10.77;1.50;;;;;;;1.85;85.67;101488.94;5045740;28;20257;-85
2023/03/28 02:41:34;;;;;;;7.73;1.63;;;;;;;1.86;85.67;101490.69;5053301;28;20284;-86
2023/03/28 02:44:20;;;;;;;7.73;2.00;;;;;;;1.81;85.75;101489.00;5056251;28;20220;-84
2023/03/28 02:46:54;;;;;;;8.27;1.53;;;;;;;1.81;85.54;101503.00;5052624;28;20205;-85
2023/03/28 02:49:32;;;;;;;7.00;1.57;;;;;;;1.79;85.90;101491.69;5053844;28;20230;-85
2023/03/28 02:52:08;;;;;;;10.80;1.60;;;;;;;1.77;85.93;101493.44;5050371;28;20241;-85
2023/03/28 02:54:41;;;;;;;6.03;1.37;;;;;;;1.76;86.57;101503.97;5055434;28;20198;-85
2023/03/28 02:57:11;;;;;;;8.83;1.70;;;;;;;1.74;86.39;101506.63;5054581;28;20594;-84
2023/03/28 02:59:44;;;;;;;6.53;1.60;;;;;;;1.73;86.06;101500.50;5053168;28;20216;-85
2023/03/28 03:02:16;;;;;;;5.10;1.40;;;;;;;1.74;86.31;101504.00;5050221;28;20222;-87
2023/03/28 03:04:44;;;;;;;9.17;1.60;;;;;;;1.73;86.07;101511.00;5053656;28;20589;-84
2023/03/28 03:07:10;;;;;;;9.27;2.43;;;;;;;1.72;86.49;101518.91;5052187;28;20255;-85
2023/03/28 03:09:39;;;;;;;7.67;1.73;;;;;;;1.70;86.78;101520.66;5058369;28;20201;-85
2023/03/28 03:12:06;;;;;;;9.27;2.20;;;;;;;1.70;86.94;101511.03;5053210;28;20232;-85
2023/03/28 03:14:33;;;;;;;14.60;1.70;;;;;;;1.71;86.72;101520.66;5051855;28;20213;-84
2023/03/28 03:16:59;;;;;;;10.57;1.80;;;;;;;1.71;86.92;101514.53;5053261;28;20197;-85
2023/03/28 03:19:26;;;;;;;12.80;1.97;;;;;;;1.71;86.78;101518.03;5052478;28;20681;-85
2023/03/28 03:21:53;;;;;;;7.67;1.30;;;;;;;1.72;87.42;101519.75;5052883;28;20222;-84
2023/03/28 03:24:20;;;;;;;4.70;1.33;;;;;;;1.73;87.25;101520.63;5052661;28;20206;-84
2023/03/28 03:26:48;;;;;;;6.30;1.70;;;;;;;1.73;87.07;101521.50;5055109;28;20201;-85
2023/03/28 03:29:15;;;;;;;4.90;1.50;;;;;;;1.73;87.64;101523.25;5051014;28;20206;-85
2023/03/28 03:31:41;;;;;;;5.37;1.80;;;;;;;1.72;87.48;101525.03;5052776;28;20221;-84
2023/03/28 03:34:08;;;;;;;6.67;1.53;;;;;;;1.72;87.74;101518.91;5053850;28;20204;-84
2023/03/28 03:36:34;;;;;;;9.67;1.80;;;;;;;1.70;87.74;101526.78;5053291;28;20211;-86
2023/03/28 03:39:02;;;;;;;6.43;1.90;;;;;;;1.70;87.86;101531.19;5053249;28;20212;-84
2023/03/28 03:41:28;;;;;;;8.17;2.00;;;;;;;1.70;87.41;101536.44;5054135;28;20209;-85
2023/03/28 03:43:56;;;;;;;8.63;1.60;;;;;;;1.70;88.16;101533.78;5054807;28;20586;-85
2023/03/28 03:46:23;;;;;;;7.07;1.47;;;;;;;1.69;88.16;101537.31;5048148;28;20688;-86
2023/03/28 03:48:49;;;;;;;7.80;1.53;;;;;;;1.69;88.29;101532.94;5054550;28;20209;-84
2023/03/28 03:51:16;;;;;;;7.37;2.70;;;;;;;1.72;87.93;101543.41;5051583;28;20229;-84
2023/03/28 03:53:43;;;;;;;5.97;1.53;;;;;;;1.73;87.66;101536.38;5053416;28;20240;-85
2023/03/28 03:56:10;;;;;;;8.13;1.30;;;;;;;1.76;88.22;101546.00;5050245;28;20215;-86
2023/03/28 03:58:37;;;;;;;4.13;1.20;;;;;;;1.75;87.78;101542.50;5053795;28;20208;-84
2023/03/28 04:01:05;;;;;;;5.10;2.23;;;;;;;1.72;87.94;101535.53;5051852;28;20604;-84
2023/03/28 04:03:32;;;;;;;5.53;1.40;;;;;;;1.72;88.32;101537.28;5053556;28;20225;-84
2023/03/28 04:06:00;;;;;;;7.33;1.53;;;;;;;1.71;88.33;101549.53;5048910;28;20244;-85
2023/03/28 04:08:27;;;;;;;8.47;1.90;;;;;;;1.70;87.95;101558.31;5054534;28;20201;-85
2023/03/28 04:10:53;;;;;;;10.97;1.63;;;;;;;1.69;87.75;101553.94;5055225;28;20202;-84
2023/03/28 04:13:20;;;;;;;4.70;1.70;;;;;;;1.67;88.09;101552.22;5051902;28;20229;-85
2023/03/28 04:15:47;;;;;;;10.60;2.17;;;;;;;1.65;87.95;101549.59;5050776;28;20193;-85
2023/03/28 04:18:16;;;;;;;8.67;1.63;;;;;;;1.64;87.75;101541.75;5051020;28;20224;-85
2023/03/28 04:20:45;;;;;;;10.07;2.00;;;;;;;1.61;88.16;101549.69;5053278;28;20210;-85
2023/03/28 04:23:12;;;;;;;8.73;2.37;;;;;;;1.59;88.32;101552.31;5051857;28;20240;-85
2023/03/28 04:25:40;;;;;;;7.63;1.70;;;;;;;1.57;88.04;101551.47;5052698;28;20236;-84
2023/03/28 04:28:08;;;;;;;9.97;1.60;;;;;;;1.56;87.96;101554.13;5051332;28;20216;-84
2023/03/28 04:30:34;;;;;;;8.03;1.70;;;;;;;1.53;87.97;101555.00;5049675;28;20658;-84
2023/03/28 04:33:03;;;;;;;8.50;2.57;;;;;;;1.52;87.84;101562.91;5053490;28;20284;-84
2023/03/28 04:35:34;;;;;;;6.73;2.00;;;;;;;1.49;88.23;101555.94;5048737;28;20206;-84
2023/03/28 04:38:01;;;;;;;6.13;1.63;;;;;;;1.46;88.67;101558.59;5051783;28;20200;-85
2023/03/28 04:40:28;;;;;;;8.50;1.80;;;;;;;1.45;88.28;101564.72;5050116;28;20266;-86
2023/03/28 04:42:55;;;;;;;10.00;2.10;;;;;;;1.44;88.02;101570.84;5047803;28;20233;-85
2023/03/28 04:45:22;;;;;;;4.33;1.50;;;;;;;1.43;88.33;101565.66;5054031;28;20197;-86
2023/03/28 04:47:48;;;;;;;8.37;2.17;;;;;;;1.41;88.62;101576.16;5050485;28;20210;-84
2023/03/28 04:50:15;;;;;;;7.93;2.13;;;;;;;1.40;88.16;101577.03;5052336;28;20216;-84
2023/03/28 04:52:43;;;;;;;9.10;1.80;;;;;;;1.40;88.71;101584.91;5050593;28;20656;-85
2023/03/28 04:55:10;;;;;;;9.70;2.00;;;;;;;1.41;89.19;101583.16;5051643;28;20650;-84
2023/03/28 04:57:37;;;;;;;5.97;1.50;;;;;;;1.38;88.86;101592.81;5050819;28;20209;-84
2023/03/28 05:00:08;;;;;;;7.80;1.40;;;;;;;1.39;88.66;101591.06;5050495;28;20205;-84
2023/03/28 05:02:34;;;;;;;5.73;1.50;;;;;;;1.38;88.48;101602.44;5051232;28;20311;-85
2023/03/28 05:05:01;;;;;;;7.60;1.77;;;;;;;1.36;88.81;101607.69;5052116;28;20643;-85
2023/03/28 05:07:27;;;;;;;4.90;1.30;;;;;;;1.35;89.06;101607.72;5051586;28;20573;-85
2023/03/28 05:09:55;;;;;;;8.27;2.00;;;;;;;1.34;88.81;101613.84;5051481;28;20228;-85
2023/03/28 05:12:21;;;;;;;6.27;1.83;;;;;;;1.32;88.84;101616.47;5048903;28;20240;-85
2023/03/28 05:14:48;;;;;;;7.60;2.00;;;;;;;1.33;88.89;101619.97;5050885;28;20194;-85
2023/03/28 05:17:14;;;;;;;8.73;2.67;;;;;;;1.32;89.22;101624.34;5050299;28;20217;-84
2023/03/28 05:19:41;;;;;;;9.67;1.80;;;;;;;1.29;89.11;101629.63;5052377;28;20213;-83
2023/03/28 05:22:07;;;;;;;6.03;2.00;;;;;;;1.30;89.42;101630.50;5051870;28;20229;-85
2023/03/28 05:24:34;;;;;;;7.97;1.80;;;;;;;1.30;89.00;101631.38;5050717;28;20208;-85
2023/03/28 05:27:01;;;;;;;8.47;2.43;;;;;;;1.31;89.26;101629.63;5045219;28;20205;-85
2023/03/28 05:29:28;;;;;;;6.90;1.87;;;;;;;1.33;89.52;101635.72;5045654;28;20217;-85
2023/03/28 05:31:54;;;;;;;9.67;2.20;;;;;;;1.34;89.84;101638.34;5054634;28;20229;-85
2023/03/28 05:34:21;;;;;;;8.30;1.80;;;;;;;1.37;89.45;101637.44;5050147;28;20205;-85
2023/03/28 05:36:47;;;;;;;6.80;1.60;;;;;;;1.39;89.68;101639.16;5050804;28;20711;-86
2023/03/28 05:39:14;;;;;;;11.90;3.10;;;;;;;1.42;89.82;101646.16;5049375;28;20292;-85
2023/03/28 05:41:41;;;;;;;9.97;2.87;;;;;;;1.46;90.28;101642.59;5051272;28;20221;-84
2023/03/28 05:44:09;;;;;;;10.07;2.10;;;;;;;1.49;90.26;101644.31;5052717;28;20210;-85
2023/03/28 05:46:35;;;;;;;6.13;1.67;;;;;;;1.52;90.53;101650.41;5052352;28;20198;-86
2023/03/28 05:49:01;;;;;;;15.83;2.33;;;;;;;1.54;89.81;101653.91;5053673;28;20209;-85
2023/03/28 05:51:31;;;;;;;10.33;2.17;;;;;;;1.55;90.58;101645.13;5051805;28;20229;-85
2023/03/28 05:53:57;;;;;;;8.17;1.40;;;;;;;1.57;90.00;101656.50;5056787;28;20209;-85
2023/03/28 05:56:24;;;;;;;8.00;3.40;;;;;;;1.57;89.86;101648.63;5058420;28;20568;-85
2023/03/28 05:58:51;;;;;;;9.43;1.80;;;;;;;1.59;90.32;101653.84;5062118;28;20209;-84
2023/03/28 06:01:22;;;;;;;6.47;1.63;;;;;;;1.58;90.19;101658.22;5053385;28;20230;-85
2023/03/28 06:03:49;;;;;;;9.67;2.40;;;;;;;1.59;89.91;101661.72;5049906;28;20222;-84
2023/03/28 06:06:16;;;;;;;7.83;1.90;;;;;;;1.60;90.01;101656.47;5054240;28;20513;-84
2023/03/28 06:08:43;;;;;;;9.93;1.77;;;;;;;1.64;90.58;101663.41;5050020;28;20208;-85
2023/03/28 06:11:10;;;;;;;10.50;1.77;;;;;;;1.65;90.09;101674.78;5052803;28;20217;-84
2023/03/28 06:13:36;;;;;;;6.17;2.00;;;;;;;1.66;89.99;101671.25;5052496;28;20233;-84
2023/03/28 06:16:03;;;;;;;6.97;1.60;;;;;;;1.68;90.09;101669.50;5055235;28;20202;-86
2023/03/28 06:18:31;;;;;;;4.37;2.10;;;;;;;1.71;90.55;101674.72;5049705;28;20229;-84
2023/03/28 06:20:57;;;;;;;11.80;2.13;;;;;;;1.72;90.05;101674.69;5048438;28;20651;-84
2023/03/28 06:23:24;;;;;;;7.50;1.60;;;;;;;1.79;90.24;101690.41;5048915;28;20227;-84
2023/03/28 06:25:51;;;;;;;3.33;1.37;;;;;;;1.83;90.55;101679.81;5053384;28;20206;-84
2023/03/28 06:28:17;;;;;;;7.87;1.70;;;;;;;1.89;90.28;101686.78;5052524;28;20608;-84
2023/03/28 06:30:48;;;;;;;5.70;1.60;;;;;;;1.95;90.50;101695.47;5055166;28;20201;-85
2023/03/28 06:33:14;;;;;;;6.60;1.53;;;;;;;2.01;90.41;101694.50;5052345;28;20225;-84
2023/03/28 06:35:42;;;;;;;6.97;1.60;;;;;;;2.03;90.80;101696.25;5056178;28;20288;-83
2023/03/28 06:38:09;;;;;;;3.40;1.20;;;;;;;2.09;90.37;101697.94;5053376;28;20205;-84
2023/03/28 06:40:35;;;;;;;8.83;1.63;;;;;;;2.12;90.77;101699.66;5055711;28;20205;-83
2023/03/28 06:43:02;;;;;;;10.90;2.13;;;;;;;2.13;90.35;101689.13;5051416;28;20217;-83
2023/03/28 06:45:28;;;;;;;6.93;1.50;;;;;;;2.16;90.71;101699.59;5053373;28;20205;-83
2023/03/28 06:47:54;;;;;;;10.20;1.90;;;;;;;2.19;89.90;101698.69;5055068;28;20217;-84
2023/03/28 06:50:21;;;;;;;4.90;1.60;;;;;;;2.21;89.77;101699.53;5048363;28;20213;-83
2023/03/28 06:52:49;;;;;;;8.63;2.13;;;;;;;2.24;89.63;101697.75;5045695;28;20233;-84
2023/03/28 06:55:16;;;;;;;4.77;1.50;;;;;;;2.29;90.02;101706.44;5051928;28;20216;-85
2023/03/28 06:57:42;;;;;;;11.60;2.07;;;;;;;2.35;89.49;101702.84;5053403;28;20212;-83
2023/03/28 07:00:10;;;;;;;5.80;1.93;;;;;;;2.42;89.96;101709.78;5050818;28;20216;-83
2023/03/28 07:02:36;;;;;;;8.33;1.80;;;;;;;2.52;90.00;101714.03;5052782;28;20224;-83
2023/03/28 07:05:03;;;;;;;10.30;2.00;;;;;;;2.63;89.63;101712.13;5048348;28;20588;-84
2023/03/28 07:07:30;;;;;;;10.80;1.90;;;;;;;2.76;90.30;101708.44;5048703;28;20716;-86
2023/03/28 07:09:58;;;;;;;5.03;1.70;;;;;;;2.90;89.67;101712.63;5046782;28;20228;-83
2023/03/28 07:12:25;;;;;;;7.37;1.77;;;;;;;3.03;89.05;101722.97;5046202;28;20230;-84
2023/03/28 07:14:51;;;;;;;9.00;1.80;;;;;;;3.16;89.30;101709.59;5056356;28;20219;-83
2023/03/28 07:17:18;;;;;;;10.73;1.93;;;;;;;3.28;88.50;101712.03;5048839;28;21515;-83
2023/03/28 07:19:47;;;;;;;7.97;2.17;;;;;;;3.37;87.95;101715.38;5053747;28;20217;-84
2023/03/28 07:22:14;;;;;;;9.23;1.73;;;;;;;3.46;86.28;101716.97;5055737;28;20367;-86
2023/03/28 07:24:40;;;;;;;4.90;1.20;;;;;;;3.55;85.84;101711.56;5047772;28;20216;-85
2023/03/28 07:27:08;;;;;;;8.20;1.67;;;;;;;3.66;84.70;101717.50;5048797;28;20560;-83
2023/03/28 07:29:35;;;;;;;7.17;1.60;;;;;;;3.77;84.32;101728.72;5047872;28;20566;-84
2023/03/28 07:32:01;;;;;;;9.00;2.00;;;;;;;3.88;83.81;101725.88;5053652;28;20230;-84
2023/03/28 07:34:28;;;;;;;7.60;1.93;;;;;;;3.97;82.29;101732.75;5051900;28;20552;-84
2023/03/28 07:36:54;;;;;;;6.10;2.57;;;;;;;4.01;81.65;101726.53;5048369;28;20206;-84
2023/03/28 07:39:21;;;;;;;7.20;1.50;;;;;;;4.00;80.63;101735.31;5054675;28;20206;-83
2023/03/28 07:41:47;;;;;;;8.93;2.33;;;;;;;4.02;79.91;101744.06;5059371;28;20229;-83
2023/03/28 07:44:15;;;;;;;5.57;1.63;;;;;;;4.02;78.76;101738.81;5052105;28;20203;-87
2023/03/28 07:46:42;;;;;;;5.40;1.60;;;;;;;4.02;78.50;101739.66;5051348;28;20202;-84
2023/03/28 07:49:09;;;;;;;10.30;2.17;;;;;;;4.04;78.25;101744.91;5045930;28;20206;-83
2023/03/28 07:51:36;;;;;;;12.00;2.03;;;;;;;4.06;78.61;101745.75;5056201;28;20205;-84
2023/03/28 07:54:03;;;;;;;6.23;1.67;;;;;;;4.08;78.13;101749.25;5053673;28;20693;-83
2023/03/28 07:56:30;;;;;;;5.57;1.83;;;;;;;4.10;78.09;101744.81;5050027;28;20210;-83
2023/03/28 07:58:57;;;;;;;8.03;2.03;;;;;;;4.14;77.83;101749.97;5049765;28;20647;-84
2023/03/28 08:01:25;;;;;;;9.03;1.60;;;;;;;4.18;78.10;101756.06;5051847;28;20209;-83
2023/03/28 08:03:51;;;;;;;8.23;2.00;;;;;;;4.18;77.75;101756.94;5054585;28;20225;-84
2023/03/28 08:06:18;;;;;;;5.87;1.60;;;;;;;4.19;77.66;101757.81;5052867;28;20594;-83
2023/03/28 08:08:45;;;;;;;9.67;2.20;;;;;;;4.18;77.38;101756.06;5059379;28;20206;-83
2023/03/28 08:11:12;;;;;;;13.10;2.37;;;;;;;4.21;77.35;101760.41;5051783;28;20621;-83
2023/03/28 08:13:39;;;;;;;8.70;2.13;;;;;;;4.23;77.60;101777.94;5053950;28;20287;-83
2023/03/28 08:16:06;;;;;;;6.43;1.53;;;;;;;4.25;77.69;101773.50;5052406;28;20723;-83
2023/03/28 08:18:34;;;;;;;9.80;2.20;;;;;;;4.28;77.00;101775.22;5050117;28;20206;-84
2023/03/28 08:21:05;;;;;;;7.23;2.47;;;;;;;4.33;77.49;101770.72;5051879;28;20304;-84
2023/03/28 08:23:31;;;;;;;7.03;2.20;;;;;;;4.37;77.45;101775.03;5044473;28;20300;-83
2023/03/28 08:26:03;;;;;;;14.43;1.77;;;;;;;4.43;77.43;101777.56;5046434;28;20205;-85
2023/03/28 08:28:31;;;;;;;11.47;2.03;;;;;;;4.50;76.91;101765.97;5043576;28;20296;-84
2023/03/28 08:30:58;;;;;;;7.67;1.83;;;;;;;4.58;76.65;101771.09;5048811;28;20267;-84
2023/03/28 08:33:25;;;;;;;9.40;1.97;;;;;;;4.63;76.35;101778.03;5039241;28;20230;-85
2023/03/28 08:35:53;;;;;;;6.83;1.70;;;;;;;4.68;75.87;101775.25;5042214;28;20209;-84
2023/03/28 08:38:19;;;;;;;7.67;1.60;;;;;;;4.73;75.46;101770.75;5042340;28;20210;-84
2023/03/28 08:40:55;;;;;;;5.83;1.50;;;;;;;4.82;76.02;101776.72;5052003;28;20205;-84
2023/03/28 08:43:32;;;;;;;6.73;1.60;;;;;;;4.89;75.72;101767.75;5046018;28;20236;-84
2023/03/28 08:46:00;;;;;;;9.37;2.07;;;;;;;4.98;75.02;101771.97;5044509;28;20202;-85
2023/03/28 08:48:34;;;;;;;7.17;2.77;;;;;;;5.05;74.91;101775.31;5047174;28;20209;-84
2023/03/28 08:51:13;;;;;;;7.97;1.63;;;;;;;5.14;75.15;101767.22;5051119;28;20205;-84
2023/03/28 08:53:43;;;;;;;5.43;1.70;;;;;;;5.25;74.58;101775.75;5046349;28;20344;-85
2023/03/28 08:56:14;;;;;;;8.23;1.60;;;;;;;5.34;74.10;101774.66;5048677;28;20201;-84
2023/03/28 08:58:49;;;;;;;10.27;1.93;;;;;;;5.41;73.91;101773.59;5052991;28;20198;-85
2023/03/28 09:01:19;;;;;;;5.40;1.40;;;;;;;5.49;73.18;101777.81;5047062;28;20204;-84
2023/03/28 09:03:48;;;;;;;6.33;1.63;;;;;;;5.56;72.85;101775.88;5050774;28;20311;-85
2023/03/28 09:06:25;;;;;;;8.70;1.67;;;;;;;5.61;71.74;101783.69;5052500;28;20256;-85
2023/03/28 09:09:03;;;;;;;7.17;1.63;;;;;;;5.63;70.81;101787.16;5053618;28;20197;-84
2023/03/28 09:11:40;;;;;;;7.00;1.40;;;;;;;5.65;70.52;101773.00;5041737;28;20292;-85
2023/03/28 09:14:19;;;;;;;11.80;2.30;;;;;;;5.70;70.44;101783.47;5045472;28;20217;-84
2023/03/28 09:17:01;;;;;;;8.90;1.67;;;;;;;5.75;70.38;101782.44;5051403;28;20198;-86
2023/03/28 09:19:43;;;;;;;10.47;2.10;;;;;;;5.82;69.95;101778.75;5046885;28;20586;-86
2023/03/28 09:22:25;;;;;;;8.87;1.67;;;;;;;5.93;70.30;101786.41;5054022;28;20317;-86
2023/03/28 09:25:05;;;;;;;8.40;1.90;;;;;;;6.02;69.54;101783.53;5056049;28;20217;-85
2023/03/28 09:27:34;;;;;;;10.33;2.40;;;;;;;6.07;69.01;101781.66;5051400;28;20844;-86
2023/03/28 09:30:16;;;;;;;9.33;1.73;;;;;;;6.15;68.52;101782.28;5054891;28;20214;-85
2023/03/28 09:32:43;;;;;;;5.80;1.27;;;;;;;6.20;68.20;101783.03;5057729;28;20320;-85
2023/03/28 09:35:15;;;;;;;6.20;1.43;;;;;;;6.22;67.57;101785.66;5052473;28;20209;-85
2023/03/28 09:37:46;;;;;;;8.40;1.20;;;;;;;6.25;67.24;101782.94;5060111;28;20217;-87
2023/03/28 09:40:18;;;;;;;8.67;1.50;;;;;;;6.26;66.56;101785.53;5054921;28;20212;-86
2023/03/28 09:42:55;;;;;;;7.40;2.23;;;;;;;6.28;66.57;101783.69;5047864;28;20218;-85
2023/03/28 09:45:31;;;;;;;13.50;1.93;;;;;;;6.30;65.90;101785.44;5045814;28;20259;-84
2023/03/28 09:47:57;;;;;;;5.30;1.40;;;;;;;6.32;65.62;101792.41;5042069;28;20571;-81
2023/03/28 09:50:24;;;;;;;4.27;1.50;;;;;;;6.36;65.83;101793.19;5051139;28;20215;-86
2023/03/28 09:52:53;;;;;;;9.63;1.10;;;;;;;6.28;64.46;101785.47;5054541;28;20276;-85
2023/03/28 09:55:24;;;;;;;5.60;1.30;;;;;;;6.25;64.23;101794.38;5044495;28;20265;-85
2023/03/28 09:58:06;;;;;;;6.63;1.37;;;;;;;6.27;63.85;101796.94;5055536;28;20198;-85
2023/03/28 10:00:36;;;;;;;6.03;1.30;;;;;;;6.31;64.03;101788.03;5048481;28;20347;-85
2023/03/28 10:03:03;;;;;;;4.23;1.37;;;;;;;6.34;63.71;101792.38;5042998;28;20710;-85
2023/03/28 10:05:36;;;;;;;9.37;2.10;;;;;;;6.37;62.69;101787.88;5047411;28;20201;-85
2023/03/28 10:08:06;;;;;;;8.50;1.90;;;;;;;6.39;62.50;101794.00;5041042;28;20743;-85
2023/03/28 10:10:32;;;;;;;7.47;1.70;;;;;;;6.42;62.78;101785.09;5051549;28;20209;-85
2023/03/28 10:13:02;;;;;;;9.90;1.63;;;;;;;6.45;62.72;101785.03;5044881;28;20241;-85
2023/03/28 10:15:38;;;;;;;7.23;2.30;;;;;;;6.51;62.58;101792.78;5046733;28;20678;-85
2023/03/28 10:18:05;;;;;;;7.20;2.03;;;;;;;6.58;62.81;101794.34;5056202;28;20223;-85
2023/03/28 10:20:36;;;;;;;6.60;1.60;;;;;;;6.63;63.08;101785.34;5042501;28;20210;-85
2023/03/28 10:23:05;;;;;;;6.83;1.70;;;;;;;6.67;62.17;101783.47;5043967;28;20253;-85
2023/03/28 10:25:39;;;;;;;6.13;1.70;;;;;;;6.69;61.72;101781.66;5059604;28;20723;-85
2023/03/28 10:28:08;;;;;;;10.03;1.57;;;;;;;6.77;61.73;101781.44;5050842;28;20243;-85
2023/03/28 10:30:36;;;;;;;9.00;2.03;;;;;;;6.89;62.92;101783.72;5049775;28;20200;-85
2023/03/28 10:33:09;;;;;;;5.23;1.50;;;;;;;6.97;61.78;101779.06;5050897;28;20240;-85
2023/03/28 10:35:40;;;;;;;7.10;1.67;;;;;;;6.98;61.28;101783.44;5052093;28;20202;-85
2023/03/28 10:38:14;;;;;;;6.77;1.23;;;;;;;6.93;60.25;101775.63;5053463;28;20201;-86
2023/03/28 10:40:41;;;;;;;5.87;1.37;;;;;;;6.90;60.31;101782.81;5055056;28;20204;-84
2023/03/28 10:43:12;;;;;;;4.40;1.30;;;;;;;6.90;60.59;101786.31;5057873;28;20229;-84
2023/03/28 10:45:42;;;;;;;12.90;1.50;;;;;;;6.93;59.59;101788.00;5060272;28;20206;-85
2023/03/28 10:48:13;;;;;;;7.40;1.43;;;;;;;6.97;59.87;101784.38;5071503;28;20255;-85
2023/03/28 10:50:43;;;;;;;6.80;1.80;;;;;;;7.06;59.34;101775.25;5061419;28;20209;-85
2023/03/28 10:53:29;;;;;;;5.37;1.63;;;;;;;7.11;58.54;101782.16;5054808;28;20642;-85
2023/03/28 10:56:06;;;;;;;9.07;1.43;;;;;;;7.16;58.27;101780.22;5054766;28;20200;-85
2023/03/28 10:58:36;;;;;;;6.20;1.50;;;;;;;7.23;58.63;101781.75;5058682;28;20682;-85
2023/03/28 11:01:09;;;;;;;7.43;2.10;;;;;;;7.28;57.75;101781.63;5056752;28;20287;-85
2023/03/28 11:03:48;;;;;;;5.10;1.80;;;;;;;7.29;58.58;101789.53;5057488;28;20219;-83
2023/03/28 11:06:20;;;;;;;3.27;1.27;;;;;;;7.27;57.86;101795.78;5056785;28;20560;-83
2023/03/28 11:08:55;;;;;;;7.20;1.40;;;;;;;7.25;58.08;101790.53;5055262;28;20705;-83
2023/03/28 11:11:43;;;;;;;4.50;1.60;;;;;;;7.29;58.15;101796.59;5050479;28;20201;-83
2023/03/28 11:14:20;;;;;;;3.57;1.30;;;;;;;7.34;57.72;101797.34;5046269;28;20230;-83
2023/03/28 11:16:55;;;;;;;4.93;1.50;;;;;;;7.37;57.12;101786.63;5053028;28;20205;-82
2023/03/28 11:19:38;;;;;;;4.40;1.30;;;;;;;7.48;57.04;101780.97;5048333;28;20198;-82
2023/03/28 11:22:15;;;;;;;6.90;1.77;;;;;;;7.63;57.33;101788.44;5050929;28;20237;-82
2023/03/28 11:24:54;;;;;;;6.00;1.70;;;;;;;7.72;56.14;101773.97;5045697;28;20294;-85
2023/03/28 11:27:27;;;;;;;8.10;1.83;;;;;;;7.77;55.65;101777.34;5047038;28;20202;-83
2023/03/28 11:29:56;;;;;;;6.47;1.40;;;;;;;7.79;56.14;101779.03;5055236;28;20788;-85
2023/03/28 11:32:26;;;;;;;7.93;1.50;;;;;;;7.86;55.67;101774.41;5055436;28;20230;-83
2023/03/28 11:35:04;;;;;;;7.33;1.37;;;;;;;7.95;55.31;101766.13;5059409;28;20299;-84
2023/03/28 11:37:36;;;;;;;6.67;1.70;;;;;;;8.01;54.73;101768.56;5053681;28;20205;-84
2023/03/28 11:40:09;;;;;;;6.23;1.60;;;;;;;8.05;54.83;101764.91;5046269;28;20198;-84
2023/03/28 11:42:40;;;;;;;3.83;1.10;;;;;;;8.08;53.22;101763.91;5050888;28;20240;-85
2023/03/28 11:45:17;;;;;;;6.10;1.37;;;;;;;8.09;53.26;101758.53;5050076;28;20217;-85